createdAt,value
2023-03-11T00:01:51.032Z,95510.84
2023-03-11T00:04:17.431Z,95506.75
2023-03-11T00:06:43.813Z,95510.84
2023-03-11T00:09:10.158Z,95509.94
2023-03-11T00:11:36.492Z,95505.28
2023-03-11T00:14:02.837Z,95507.25
2023-03-11T00:16:29.247Z,95507.75
2023-03-11T00:18:55.634Z,95502.88
2023-03-11T00:21:22.003Z,95485.22
2023-03-11T00:23:48.377Z,95482.97
2023-03-11T00:26:14.730Z,95485.47
2023-03-11T00:28:41.133Z,95478.69
2023-03-11T00:31:07.600Z,95484.13
2023-03-11T00:33:33.956Z,95488.53
2023-03-11T00:36:00.335Z,95491.59
2023-03-11T00:38:26.766Z,95483.00
2023-03-11T00:40:53.120Z,95495.66
2023-03-11T00:43:19.476Z,95507.31
2023-03-11T00:45:45.967Z,95496.91
2023-03-11T00:48:12.373Z,95509.69
2023-03-11T00:50:38.725Z,95501.63
2023-03-11T00:53:05.107Z,95500.97
2023-03-11T00:55:31.501Z,95507.22
2023-03-11T00:57:57.889Z,95504.41
2023-03-11T01:00:24.261Z,95492.63
2023-03-11T01:02:50.617Z,95487.03
2023-03-11T01:05:17.055Z,95474.97
2023-03-11T01:07:43.410Z,95478.25
2023-03-11T01:10:09.754Z,95488.16
2023-03-11T01:12:36.142Z,95480.72
2023-03-11T01:15:02.487Z,95476.16
2023-03-11T01:17:28.890Z,95485.47
2023-03-11T01:19:55.270Z,95489.09
2023-03-11T01:22:21.650Z,95487.06
2023-03-11T01:24:48.011Z,95485.16
2023-03-11T01:27:14.340Z,95482.41
2023-03-11T01:29:40.722Z,95471.44
2023-03-11T01:32:07.114Z,95457.19
2023-03-11T01:34:33.508Z,95459.66
2023-03-11T01:36:59.903Z,95449.50
2023-03-11T01:39:26.287Z,95423.94
2023-03-11T01:41:52.628Z,95422.53
2023-03-11T01:44:18.997Z,95420.03
2023-03-11T01:46:45.477Z,95404.88
2023-03-11T01:49:11.845Z,95401.09
2023-03-11T01:51:38.182Z,95392.13
2023-03-11T01:54:04.519Z,95385.19
2023-03-11T01:56:30.892Z,95375.13
2023-03-11T01:58:58.379Z,95370.69
2023-03-11T02:01:24.814Z,95378.19
2023-03-11T02:03:51.224Z,95385.34
2023-03-11T02:06:17.576Z,95384.13
2023-03-11T02:08:43.923Z,95396.00
2023-03-11T02:11:10.272Z,95398.72
2023-03-11T02:13:36.615Z,95401.84
2023-03-11T02:16:03.070Z,95403.78
2023-03-11T02:18:29.505Z,95395.09
2023-03-11T02:20:56.025Z,95390.44
2023-03-11T02:23:22.393Z,95364.84
2023-03-11T02:25:48.867Z,95348.94
2023-03-11T02:28:15.329Z,95355.81
2023-03-11T02:30:41.710Z,95346.47
2023-03-11T02:33:08.063Z,95360.78
2023-03-11T02:35:34.406Z,95355.59
2023-03-11T02:38:00.807Z,95348.94
2023-03-11T02:40:27.162Z,95348.50
2023-03-11T02:42:53.541Z,95363.78
2023-03-11T02:45:19.951Z,95362.16
2023-03-11T02:47:46.325Z,95379.78
2023-03-11T02:50:12.679Z,95354.13
2023-03-11T02:52:39.057Z,95352.34
2023-03-11T02:55:05.439Z,95336.91
2023-03-11T02:57:31.780Z,95323.06
2023-03-11T02:59:58.117Z,95312.03
2023-03-11T03:02:24.490Z,95312.19
2023-03-11T03:04:50.904Z,95311.81
2023-03-11T03:07:17.295Z,95313.19
2023-03-11T03:09:43.682Z,95298.09
2023-03-11T03:12:10.033Z,95295.34
2023-03-11T03:14:36.368Z,95307.13
2023-03-11T03:17:02.872Z,95309.09
2023-03-11T03:19:29.392Z,95293.75
2023-03-11T03:21:55.733Z,95294.69
2023-03-11T03:24:22.125Z,95284.69
2023-03-11T03:26:48.515Z,95282.28
2023-03-11T03:29:14.866Z,95277.91
2023-03-11T03:31:41.256Z,95265.66
2023-03-11T03:34:07.628Z,95251.41
2023-03-11T03:36:33.999Z,95247.25
2023-03-11T03:39:00.343Z,95256.84
2023-03-11T03:41:26.722Z,95276.53
2023-03-11T03:43:53.076Z,95271.78
2023-03-11T03:46:19.505Z,95243.06
2023-03-11T03:48:45.948Z,95251.25
2023-03-11T03:51:12.333Z,95254.38
2023-03-11T03:53:38.729Z,95249.16
2023-03-11T03:56:05.065Z,95240.75
2023-03-11T03:58:31.427Z,95256.75
2023-03-11T04:00:57.774Z,95272.16
2023-03-11T04:03:24.248Z,95266.03
2023-03-11T04:05:50.612Z,95239.53
2023-03-11T04:08:16.965Z,95218.81
2023-03-11T04:10:43.308Z,95197.78
2023-03-11T04:13:09.686Z,95221.97
2023-03-11T04:15:36.064Z,95259.88
2023-03-11T04:18:02.415Z,95276.06
2023-03-11T04:20:28.802Z,95280.50
2023-03-11T04:22:55.179Z,95277.34
2023-03-11T04:25:21.561Z,95239.50
2023-03-11T04:27:47.934Z,95263.03
2023-03-11T04:30:14.305Z,95271.69
2023-03-11T04:32:40.671Z,95265.00
2023-03-11T04:35:07.073Z,95260.97
2023-03-11T04:37:33.432Z,95242.19
2023-03-11T04:39:59.773Z,95247.88
2023-03-11T04:42:26.113Z,95274.38
2023-03-11T04:44:52.462Z,95268.44
2023-03-11T04:47:18.838Z,95267.31
2023-03-11T04:49:45.241Z,95257.94
2023-03-11T04:52:11.623Z,95254.84
2023-03-11T04:54:38.033Z,95251.97
2023-03-11T04:57:04.410Z,95249.47
2023-03-11T04:59:30.800Z,95236.63
2023-03-11T05:01:57.177Z,95262.13
2023-03-11T05:04:23.682Z,95275.59
2023-03-11T05:06:50.059Z,95253.38
2023-03-11T05:09:16.402Z,95253.41
2023-03-11T05:11:42.752Z,95259.53
2023-03-11T05:14:09.091Z,95257.78
2023-03-11T05:16:35.474Z,95260.50
2023-03-11T05:19:01.864Z,95266.84
2023-03-11T05:21:28.260Z,95272.06
2023-03-11T05:23:54.642Z,95266.59
2023-03-11T05:26:20.986Z,95265.09
2023-03-11T05:28:47.318Z,95266.31
2023-03-11T05:31:13.716Z,95277.25
2023-03-11T05:33:40.081Z,95272.31
2023-03-11T05:36:06.458Z,95278.66
2023-03-11T05:38:32.859Z,95280.53
2023-03-11T05:40:59.249Z,95279.25
2023-03-11T05:43:25.596Z,95279.09
2023-03-11T05:45:51.940Z,95275.00
2023-03-11T05:48:18.281Z,95273.03
2023-03-11T05:50:44.663Z,95272.06
2023-03-11T05:53:11.011Z,95277.03
2023-03-11T05:55:37.348Z,95284.28
2023-03-11T05:58:03.783Z,95289.28
2023-03-11T06:00:30.158Z,95293.66
2023-03-11T06:02:56.536Z,95290.16
2023-03-11T06:05:23.047Z,95282.72
2023-03-11T06:07:49.443Z,95280.66
2023-03-11T06:10:15.827Z,95296.06
2023-03-11T06:12:42.170Z,95302.97
2023-03-11T06:15:08.534Z,95295.88
2023-03-11T06:17:34.919Z,95309.13
2023-03-11T06:20:01.258Z,95307.47
2023-03-11T06:22:27.587Z,95288.69
2023-03-11T06:24:53.959Z,95299.56
2023-03-11T06:27:20.295Z,95296.69
2023-03-11T06:29:48.640Z,95296.69
2023-03-11T06:32:15.120Z,95300.56
2023-03-11T06:34:41.513Z,95296.03
2023-03-11T06:37:07.894Z,95304.75
2023-03-11T06:39:34.230Z,95292.03
2023-03-11T06:42:00.616Z,95294.59
2023-03-11T06:44:27.025Z,95286.50
2023-03-11T06:46:53.402Z,95286.38
2023-03-11T06:49:19.804Z,95291.31
2023-03-11T06:51:46.203Z,95295.06
2023-03-11T06:54:12.591Z,95298.22
2023-03-11T06:56:38.949Z,95305.09
2023-03-11T06:59:05.291Z,95315.09
2023-03-11T07:01:31.690Z,95324.78
2023-03-11T07:03:58.165Z,95311.69
2023-03-11T07:06:24.580Z,95312.94
2023-03-11T07:08:50.954Z,95306.50
2023-03-11T07:11:17.713Z,95318.91
2023-03-11T07:13:44.152Z,95335.94
2023-03-11T07:16:10.560Z,95328.38
2023-03-11T07:18:36.923Z,95325.31
2023-03-11T07:21:03.260Z,95339.41
2023-03-11T07:23:29.621Z,95332.31
2023-03-11T07:25:55.951Z,95339.59
2023-03-11T07:28:22.325Z,95348.97
2023-03-11T07:30:48.709Z,95354.66
2023-03-11T07:33:15.307Z,95350.84
2023-03-11T07:35:41.718Z,95354.81
2023-03-11T07:38:08.081Z,95353.56
2023-03-11T07:40:34.415Z,95353.88
2023-03-11T07:43:00.760Z,95350.84
2023-03-11T07:45:27.112Z,95350.38
2023-03-11T07:47:53.490Z,95359.25
2023-03-11T07:50:19.876Z,95358.75
2023-03-11T07:52:46.257Z,95341.69
2023-03-11T07:55:12.610Z,95345.81
2023-03-11T07:57:39.019Z,95355.88
2023-03-11T08:00:05.369Z,95361.16
2023-03-11T08:02:31.782Z,95360.22
2023-03-11T08:04:58.182Z,95352.06
2023-03-11T08:07:24.576Z,95354.84
2023-03-11T08:09:50.975Z,95377.63
2023-03-11T08:12:17.369Z,95392.50
2023-03-11T08:14:43.788Z,95418.41
2023-03-11T08:17:10.225Z,95419.53
2023-03-11T08:19:36.632Z,95428.44
2023-03-11T08:22:03.036Z,95444.09
2023-03-11T08:24:29.420Z,95434.09
2023-03-11T08:26:55.764Z,95439.06
2023-03-11T08:29:22.103Z,95443.75
2023-03-11T08:31:48.474Z,95450.72
2023-03-11T08:34:14.826Z,95464.91
2023-03-11T08:36:41.348Z,95470.47
2023-03-11T08:39:07.736Z,95455.75
2023-03-11T08:41:34.083Z,95456.91
2023-03-11T08:44:00.427Z,95454.16
2023-03-11T08:46:27.003Z,95453.28
2023-03-11T08:48:53.521Z,95455.19
2023-03-11T08:51:19.872Z,95464.72
2023-03-11T08:53:46.258Z,95471.88
2023-03-11T08:56:12.674Z,95469.16
2023-03-11T08:58:39.029Z,95468.41
2023-03-11T09:01:05.382Z,95483.16
2023-03-11T09:03:31.733Z,95480.06
2023-03-11T09:05:58.096Z,95490.06
2023-03-11T09:08:24.496Z,95498.06
2023-03-11T09:10:50.870Z,95495.38
2023-03-11T09:13:17.254Z,95508.03
2023-03-11T09:15:43.817Z,95511.25
2023-03-11T09:18:10.235Z,95514.06
2023-03-11T09:20:36.611Z,95511.69
2023-03-11T09:23:02.965Z,95518.34
2023-03-11T09:25:29.319Z,95523.69
2023-03-11T09:27:55.696Z,95523.25
2023-03-11T09:30:22.092Z,95532.38
2023-03-11T09:32:48.515Z,95532.38
2023-03-11T09:35:14.926Z,95536.56
2023-03-11T09:37:41.323Z,95539.97
2023-03-11T09:40:07.704Z,95536.66
2023-03-11T09:42:34.131Z,95534.78
2023-03-11T09:45:00.632Z,95540.50
2023-03-11T09:47:26.984Z,95547.63
2023-03-11T09:49:53.477Z,95551.50
2023-03-11T09:52:19.939Z,95561.97
2023-03-11T09:54:46.449Z,95559.94
2023-03-11T09:57:12.812Z,95565.25
2023-03-11T09:59:39.183Z,95567.53
2023-03-11T10:02:05.637Z,95573.97
2023-03-11T10:04:32.073Z,95566.44
2023-03-11T10:06:58.420Z,95563.47
2023-03-11T10:09:24.807Z,95564.31
2023-03-11T10:11:51.156Z,95562.06
2023-03-11T10:14:17.552Z,95563.63
2023-03-11T10:16:44.054Z,95564.78
2023-03-11T10:19:10.488Z,95570.06
2023-03-11T10:21:36.880Z,95568.53
2023-03-11T10:24:03.225Z,95565.94
2023-03-11T10:26:29.603Z,95569.13
2023-03-11T10:28:55.966Z,95573.41
2023-03-11T10:31:22.355Z,95572.53
2023-03-11T10:33:48.746Z,95576.63
2023-03-11T10:36:15.113Z,95579.47
2023-03-11T10:38:41.441Z,95582.69
2023-03-11T10:41:07.834Z,95590.91
2023-03-11T10:43:34.244Z,95582.38
2023-03-11T10:46:00.687Z,95587.59
2023-03-11T10:48:27.121Z,95583.38
2023-03-11T10:50:53.468Z,95585.19
2023-03-11T10:53:19.855Z,95576.19
2023-03-11T10:55:46.263Z,95574.66
2023-03-11T10:58:12.615Z,95583.78
2023-03-11T11:00:38.997Z,95571.53
2023-03-11T11:03:05.387Z,95574.97
2023-03-11T11:05:31.745Z,95572.69
2023-03-11T11:07:58.095Z,95574.75
2023-03-11T11:10:24.449Z,95580.31
2023-03-11T11:12:50.796Z,95587.53
2023-03-11T11:15:17.150Z,95587.53
2023-03-11T11:17:43.486Z,95585.97
2023-03-11T11:20:09.849Z,95590.88
2023-03-11T11:22:36.309Z,95586.97
2023-03-11T11:25:02.733Z,95575.78
2023-03-11T11:27:29.147Z,95586.91
2023-03-11T11:29:55.547Z,95585.72
2023-03-11T11:32:21.961Z,95578.88
2023-03-11T11:34:48.379Z,95577.50
2023-03-11T11:37:14.711Z,95576.59
2023-03-11T11:39:41.048Z,95578.34
2023-03-11T11:42:07.425Z,95582.59
2023-03-11T11:44:33.779Z,95587.31
2023-03-11T11:47:00.117Z,95587.22
2023-03-11T11:49:26.471Z,95586.22
2023-03-11T11:51:52.826Z,95588.69
2023-03-11T11:54:19.305Z,95589.44
2023-03-11T11:56:45.679Z,95591.22
2023-03-11T11:59:12.042Z,95589.94
2023-03-11T12:01:38.393Z,95586.84
2023-03-11T12:04:04.778Z,95587.47
2023-03-11T12:06:31.164Z,95590.97
2023-03-11T12:08:57.516Z,95582.28
2023-03-11T12:11:23.904Z,95577.16
2023-03-11T12:13:50.292Z,95577.94
2023-03-11T12:16:16.688Z,95569.88
2023-03-11T12:18:43.126Z,95562.94
2023-03-11T12:21:09.482Z,95565.56
2023-03-11T12:23:35.860Z,95556.84
2023-03-11T12:26:02.247Z,95559.31
2023-03-11T12:28:28.645Z,95558.84
2023-03-11T12:30:55.075Z,95566.56
2023-03-11T12:33:21.452Z,95565.94
2023-03-11T12:35:47.853Z,95568.34
2023-03-11T12:38:14.291Z,95572.84
2023-03-11T12:40:40.637Z,95571.94
2023-03-11T12:43:07.039Z,95568.13
2023-03-11T12:45:33.428Z,95569.00
2023-03-11T12:47:59.811Z,95561.84
2023-03-11T12:50:26.172Z,95556.31
2023-03-11T12:52:52.522Z,95557.53
2023-03-11T12:55:18.913Z,95547.84
2023-03-11T12:57:45.258Z,95552.78
2023-03-11T13:00:11.673Z,95543.00
2023-03-11T13:02:38.095Z,95548.25
2023-03-11T13:05:04.488Z,95550.56
2023-03-11T13:07:30.866Z,95550.63
2023-03-11T13:09:57.254Z,95537.81
2023-03-11T13:12:23.632Z,95544.00
2023-03-11T13:14:49.979Z,95545.91
2023-03-11T13:17:16.310Z,95545.34
2023-03-11T13:19:42.701Z,95553.72
2023-03-11T13:22:09.087Z,95557.94
2023-03-11T13:24:35.438Z,95565.06
2023-03-11T13:27:04.345Z,95570.53
2023-03-11T13:29:31.062Z,95564.22
2023-03-11T13:31:57.431Z,95561.97
2023-03-11T13:34:23.817Z,95565.50
2023-03-11T13:36:50.167Z,95558.44
2023-03-11T13:39:16.505Z,95560.53
2023-03-11T13:41:42.872Z,95563.22
2023-03-11T13:44:09.256Z,95573.28
2023-03-11T13:46:35.632Z,95574.44
2023-03-11T13:49:02.025Z,95569.63
2023-03-11T13:51:28.409Z,95577.78
2023-03-11T13:53:54.765Z,95582.94
2023-03-11T13:56:21.139Z,95585.88
2023-03-11T13:58:47.494Z,95583.94
2023-03-11T14:01:13.852Z,95585.81
2023-03-11T14:03:40.484Z,95581.25
2023-03-11T14:06:06.877Z,95580.47
2023-03-11T14:08:33.258Z,95591.84
2023-03-11T14:10:59.649Z,95591.72
2023-03-11T14:13:26.002Z,95586.16
2023-03-11T14:15:52.388Z,95593.50
2023-03-11T14:18:18.786Z,95594.66
2023-03-11T14:20:45.179Z,95603.75
2023-03-11T14:23:12.266Z,95600.19
2023-03-11T14:25:38.677Z,95610.72
2023-03-11T14:28:05.067Z,95601.97
2023-03-11T14:30:31.425Z,95598.09
2023-03-11T14:32:57.845Z,95593.81
2023-03-11T14:35:24.268Z,95593.47
2023-03-11T14:37:50.655Z,95594.97
2023-03-11T14:40:17.045Z,95597.44
2023-03-11T14:42:43.445Z,95586.06
2023-03-11T14:45:09.791Z,95588.13
2023-03-11T14:47:36.146Z,95588.00
2023-03-11T14:50:02.540Z,95601.25
2023-03-11T14:52:28.904Z,95604.75
2023-03-11T14:54:55.279Z,95612.59
2023-03-11T14:57:21.680Z,95612.00
2023-03-11T14:59:48.023Z,95608.50
2023-03-11T15:02:14.399Z,95611.03
2023-03-11T15:04:40.765Z,95605.50
2023-03-11T15:07:07.143Z,95609.63
2023-03-11T15:09:33.505Z,95601.25
2023-03-11T15:11:59.915Z,95611.69
2023-03-11T15:14:26.271Z,95612.91
2023-03-11T15:16:52.680Z,95618.38
2023-03-11T15:19:19.064Z,95620.88
2023-03-11T15:21:45.446Z,95620.41
2023-03-11T15:24:11.822Z,95618.19
2023-03-11T15:26:38.245Z,95612.06
2023-03-11T15:29:06.952Z,95622.13
2023-03-11T15:31:33.647Z,95627.69
2023-03-11T15:33:59.987Z,95635.16
2023-03-11T15:36:26.329Z,95624.50
2023-03-11T15:38:52.676Z,95633.91
2023-03-11T15:41:19.062Z,95642.41
2023-03-11T15:43:45.404Z,95639.78
2023-03-11T15:46:11.847Z,95633.91
2023-03-11T15:48:38.379Z,95636.94
2023-03-11T15:51:04.770Z,95641.25
2023-03-11T15:53:31.112Z,95639.47
2023-03-11T15:56:06.250Z,95633.66
2023-03-11T15:58:33.189Z,95637.41
2023-03-11T16:00:59.537Z,95643.31
2023-03-11T16:03:25.878Z,95645.34
2023-03-11T16:05:52.222Z,95646.81
2023-03-11T16:08:18.598Z,95645.84
2023-03-11T16:10:44.970Z,95651.91
2023-03-11T16:13:11.312Z,95656.66
2023-03-11T16:15:37.736Z,95649.19
2023-03-11T16:18:04.157Z,95656.00
2023-03-11T16:20:30.573Z,95653.03
2023-03-11T16:22:56.929Z,95665.50
2023-03-11T16:25:23.268Z,95662.09
2023-03-11T16:27:49.615Z,95673.63
2023-03-11T16:30:15.974Z,95672.63
2023-03-11T16:32:42.366Z,95676.03
2023-03-11T16:35:08.755Z,95682.34
2023-03-11T16:37:35.164Z,95669.69
2023-03-11T16:40:01.577Z,95694.59
2023-03-11T16:42:27.980Z,95697.75
2023-03-11T16:44:54.360Z,95685.00
2023-03-11T16:47:20.926Z,95698.81
2023-03-11T16:49:47.324Z,95704.34
2023-03-11T16:52:13.747Z,95696.22
2023-03-11T16:54:40.127Z,95698.22
2023-03-11T16:57:06.507Z,95694.75
2023-03-11T16:59:32.856Z,95695.41
2023-03-11T17:01:59.268Z,95699.94
2023-03-11T17:04:25.677Z,95711.50
2023-03-11T17:06:52.070Z,95720.22
2023-03-11T17:09:18.415Z,95711.16
2023-03-11T17:11:44.754Z,95731.22
2023-03-11T17:14:16.529Z,95712.63
2023-03-11T17:16:43.280Z,95731.91
2023-03-11T17:19:09.683Z,95712.19
2023-03-11T17:21:36.061Z,95726.22
2023-03-11T17:24:02.430Z,95730.22
2023-03-11T17:26:28.816Z,95718.53
2023-03-11T17:28:55.172Z,95728.19
2023-03-11T17:31:21.582Z,95727.81
2023-03-11T17:33:47.968Z,95739.84
2023-03-11T17:36:14.375Z,95731.56
2023-03-11T17:38:40.795Z,95755.47
2023-03-11T17:41:07.143Z,95754.09
2023-03-11T17:43:33.481Z,95732.13
2023-03-11T17:45:59.887Z,95769.53
2023-03-11T17:48:26.354Z,95770.38
2023-03-11T17:50:52.750Z,95761.38
2023-03-11T17:53:19.141Z,95779.28
2023-03-11T17:55:45.544Z,95771.50
2023-03-11T17:58:11.946Z,95778.16
2023-03-11T18:00:38.335Z,95785.78
2023-03-11T18:03:04.747Z,95773.56
2023-03-11T18:05:31.155Z,95766.28
2023-03-11T18:07:57.557Z,95773.13
2023-03-11T18:10:23.914Z,95792.03
2023-03-11T18:12:50.260Z,95758.97
2023-03-11T18:15:16.630Z,95780.47
2023-03-11T18:17:42.999Z,95801.72
2023-03-11T18:20:09.378Z,95769.84
2023-03-11T18:22:36.416Z,95798.97
2023-03-11T18:25:03.591Z,95806.75
2023-03-11T18:27:29.979Z,95763.06
2023-03-11T18:29:56.441Z,95808.16
2023-03-11T18:32:22.867Z,95810.59
2023-03-11T18:34:49.217Z,95793.56
2023-03-11T18:37:15.597Z,95809.22
2023-03-11T18:39:41.955Z,95804.09
2023-03-11T18:42:08.295Z,95818.34
2023-03-11T18:44:36.835Z,95808.16
2023-03-11T18:47:03.399Z,95796.34
2023-03-11T18:49:29.794Z,95817.25
2023-03-11T18:51:56.182Z,95823.09
2023-03-11T18:54:22.595Z,95817.91
2023-03-11T18:56:49.102Z,95816.75
2023-03-11T18:59:15.459Z,95823.75
2023-03-11T19:01:41.789Z,95827.34
2023-03-11T19:04:08.128Z,95820.56
2023-03-11T19:06:34.501Z,95825.75
2023-03-11T19:09:00.858Z,95830.28
2023-03-11T19:11:27.207Z,95839.81
2023-03-11T19:13:53.590Z,95839.75
2023-03-11T19:16:20.045Z,95823.28
2023-03-11T19:18:46.448Z,95837.34
2023-03-11T19:21:12.855Z,95854.16
2023-03-11T19:23:39.200Z,95847.19
2023-03-11T19:26:05.573Z,95842.94
2023-03-11T19:28:31.933Z,95852.84
2023-03-11T19:30:58.316Z,95851.03
2023-03-11T19:33:24.733Z,95850.75
2023-03-11T19:35:51.087Z,95865.28
2023-03-11T19:38:17.483Z,95867.94
2023-03-11T19:40:43.873Z,95873.25
2023-03-11T19:43:10.234Z,95877.03
2023-03-11T19:45:36.653Z,95873.34
2023-03-11T19:48:03.109Z,95874.47
2023-03-11T19:50:29.460Z,95871.75
2023-03-11T19:52:55.788Z,95865.88
2023-03-11T19:55:22.282Z,95881.00
2023-03-11T19:57:48.659Z,95871.22
2023-03-11T20:00:15.008Z,95871.50
2023-03-11T20:02:41.458Z,95866.19
2023-03-11T20:05:07.974Z,95874.31
2023-03-11T20:07:34.382Z,95870.69
2023-03-11T20:10:00.792Z,95870.25
2023-03-11T20:12:27.129Z,95863.69
2023-03-11T20:14:53.513Z,95869.75
2023-03-11T20:17:20.005Z,95866.47
2023-03-11T20:19:46.361Z,95873.66
2023-03-11T20:22:12.829Z,95876.97
2023-03-11T20:24:39.293Z,95877.47
2023-03-11T20:27:05.744Z,95885.59
2023-03-11T20:29:32.230Z,95892.78
2023-03-11T20:31:58.830Z,95889.94
2023-03-11T20:34:25.271Z,95886.81
2023-03-11T20:36:51.690Z,95886.81
2023-03-11T20:39:18.162Z,95901.00
2023-03-11T20:41:44.712Z,95899.28
2023-03-11T20:44:11.108Z,95903.63
2023-03-11T20:46:37.559Z,95911.69
2023-03-11T20:49:04.078Z,95905.44
2023-03-11T20:51:30.431Z,95916.56
2023-03-11T20:53:56.875Z,95925.63
2023-03-11T20:56:23.391Z,95922.44
2023-03-11T20:58:49.735Z,95921.53
2023-03-11T21:01:16.091Z,95924.03
2023-03-11T21:03:42.489Z,95921.53
2023-03-11T21:06:08.921Z,95926.31
2023-03-11T21:08:35.335Z,95934.16
2023-03-11T21:11:01.702Z,95932.00
2023-03-11T21:13:28.071Z,95946.63
2023-03-11T21:15:54.460Z,95928.13
2023-03-11T21:18:20.895Z,95938.63
2023-03-11T21:20:47.303Z,95944.31
2023-03-11T21:23:13.720Z,95936.34
2023-03-11T21:25:40.122Z,95940.50
2023-03-11T21:28:06.465Z,95942.66
2023-03-11T21:30:32.942Z,95940.50
2023-03-11T21:32:59.498Z,95945.13
2023-03-11T21:35:25.963Z,95952.44
2023-03-11T21:37:52.367Z,95958.25
2023-03-11T21:40:18.770Z,95960.59
2023-03-11T21:42:45.118Z,95957.50
2023-03-11T21:45:11.813Z,95942.66
2023-03-11T21:47:38.282Z,95956.47
2023-03-11T21:50:04.729Z,95972.13
2023-03-11T21:52:31.198Z,95959.72
2023-03-11T21:54:57.696Z,95961.22
2023-03-11T21:57:24.173Z,95966.31
2023-03-11T21:59:50.617Z,95973.13
2023-03-11T22:02:17.059Z,95970.03
2023-03-11T22:04:43.679Z,95961.31
2023-03-11T22:07:10.129Z,95971.06
2023-03-11T22:09:36.511Z,95973.94
2023-03-11T22:12:02.889Z,95980.09
2023-03-11T22:14:29.322Z,95971.66
2023-03-11T22:16:55.861Z,95972.19
2023-03-11T22:19:22.267Z,95982.25
2023-03-11T22:21:48.714Z,95976.88
2023-03-11T22:24:15.070Z,95984.81
2023-03-11T22:26:41.418Z,95988.28
2023-03-11T22:29:08.992Z,95995.78
2023-03-11T22:31:35.610Z,95986.25
2023-03-11T22:34:02.035Z,96006.69
2023-03-11T22:36:28.382Z,96010.19
2023-03-11T22:38:54.773Z,96015.03
2023-03-11T22:41:21.123Z,96024.50
2023-03-11T22:43:47.517Z,96025.25
2023-03-11T22:46:13.987Z,96027.28
2023-03-11T22:48:40.425Z,96037.75
2023-03-11T22:51:06.787Z,96043.34
2023-03-11T22:53:33.150Z,96045.63
2023-03-11T22:55:59.500Z,96038.56
2023-03-11T22:58:25.879Z,96041.63
2023-03-11T23:00:52.272Z,96035.91
2023-03-11T23:03:18.682Z,96036.97
2023-03-11T23:05:45.093Z,96017.88
2023-03-11T23:08:11.480Z,96021.47
2023-03-11T23:10:37.828Z,96037.72
2023-03-11T23:13:04.179Z,96040.81
2023-03-11T23:15:30.565Z,96029.53
2023-03-11T23:17:56.951Z,96040.72
2023-03-11T23:20:23.294Z,96035.72
2023-03-11T23:22:49.670Z,96035.16
2023-03-11T23:25:16.057Z,96039.72
2023-03-11T23:27:42.479Z,96046.59
2023-03-11T23:30:08.890Z,96047.16
2023-03-11T23:32:35.295Z,96036.59
2023-03-11T23:35:01.721Z,96038.59
2023-03-11T23:37:28.130Z,96043.53
2023-03-11T23:39:54.509Z,96036.97
2023-03-11T23:42:25.878Z,96028.50
2023-03-11T23:44:52.717Z,96025.31
2023-03-11T23:47:19.117Z,96031.28
2023-03-11T23:49:45.468Z,96032.75
2023-03-11T23:52:11.838Z,96042.91
2023-03-11T23:54:38.235Z,96038.25
2023-03-11T23:57:04.622Z,96044.56
2023-03-11T23:59:30.961Z,96049.03
